Time;durP1;ratioP1;P1;durP2;ratioP2;P2;SDS_P1;SDS_P2;PMS_P1;PMS_P2;Temp;Humidity;BMP_temperature;BMP_pressure;BME280_temperature;BME280_humidity;BME280_pressure;Samples;Min_cycle;Max_cycle;Signal;HPM_P1;HPM_P2
2022/04/23 00:00:08;;;;;;;17.33;15.50;;;13.00;94.30;;;;;;4996065;28;20444;-51
2022/04/23 00:02:35;;;;;;;17.67;15.97;;;13.00;94.40;;;;;;4995922;28;20482;-52
2022/04/23 00:05:02;;;;;;;17.00;14.40;;;12.90;94.60;;;;;;4996019;28;20487;-51
2022/04/23 00:07:29;;;;;;;17.43;15.63;;;12.80;94.70;;;;;;4996013;28;20459;-51
2022/04/23 00:09:58;;;;;;;21.57;14.87;;;12.80;95.00;;;;;;4995800;28;20486;-50
2022/04/23 00:12:25;;;;;;;18.90;14.60;;;12.80;95.40;;;;;;4995628;28;20552;-50
2022/04/23 00:14:53;;;;;;;16.80;14.97;;;12.80;95.50;;;;;;4995979;28;20451;-49
2022/04/23 00:17:20;;;;;;;17.03;15.33;;;12.70;95.60;;;;;;4995853;28;20480;-49
2022/04/23 00:19:47;;;;;;;16.53;14.87;;;12.60;96.00;;;;;;4996016;28;20444;-49
2022/04/23 00:22:15;;;;;;;16.27;14.10;;;12.60;96.10;;;;;;4994702;28;20538;-49
2022/04/23 00:24:43;;;;;;;16.07;14.37;;;12.60;96.50;;;;;;4995748;28;20807;-51
2022/04/23 00:27:11;;;;;;;15.83;13.77;;;12.60;97.00;;;;;;4995907;28;20788;-50
2022/04/23 00:29:39;;;;;;;16.17;14.57;;;12.50;96.90;;;;;;4995814;28;20451;-51
2022/04/23 00:32:08;;;;;;;18.30;16.40;;;12.50;97.10;;;;;;4995658;28;20452;-51
2022/04/23 00:34:35;;;;;;;16.20;14.23;;;12.50;97.20;;;;;;4995189;28;20484;-50
2022/04/23 00:37:03;;;;;;;14.43;12.87;;;12.60;97.40;;;;;;4995320;28;20488;-51
2022/04/23 00:39:30;;;;;;;16.30;14.60;;;12.60;97.80;;;;;;4995379;28;20484;-51
2022/04/23 00:42:00;;;;;;;13.90;12.23;;;12.60;98.10;;;;;;4995327;28;20519;-50
2022/04/23 00:44:29;;;;;;;14.20;12.40;;;12.60;98.00;;;;;;4995159;28;21009;-51
2022/04/23 00:46:56;;;;;;;17.57;12.43;;;12.60;98.40;;;;;;4995402;28;20463;-51
2022/04/23 00:49:23;;;;;;;15.03;12.93;;;12.60;98.20;;;;;;4995337;28;20536;-50
2022/04/23 00:51:51;;;;;;;15.50;13.10;;;12.70;98.60;;;;;;4995290;28;20488;-50
2022/04/23 00:54:19;;;;;;;14.13;12.73;;;12.70;98.60;;;;;;4995549;28;20456;-50
2022/04/23 00:56:47;;;;;;;14.13;12.63;;;12.70;98.70;;;;;;4995341;28;20445;-50
2022/04/23 00:59:14;;;;;;;12.27;10.80;;;12.60;99.00;;;;;;4995080;28;20478;-50
2022/04/23 01:01:43;;;;;;;14.40;13.00;;;12.60;99.30;;;;;;4995241;28;20539;-50
2022/04/23 01:04:12;;;;;;;13.93;12.40;;;12.50;99.60;;;;;;4994734;28;20959;-50
2022/04/23 01:06:40;;;;;;;11.87;10.70;;;12.50;99.90;;;;;;4994692;28;20544;-50
2022/04/23 01:09:08;;;;;;;14.07;11.80;;;12.40;99.90;;;;;;4994666;28;20978;-50
2022/04/23 01:11:37;;;;;;;13.27;11.13;;;12.40;99.90;;;;;;4994487;28;20575;-51
2022/04/23 01:14:05;;;;;;;14.57;13.23;;;12.50;99.90;;;;;;4994567;28;20462;-50
2022/04/23 01:16:33;;;;;;;14.63;13.00;;;12.40;99.90;;;;;;4994620;28;20452;-50
2022/04/23 01:19:02;;;;;;;12.10;10.90;;;12.40;99.90;;;;;;4994401;28;20555;-50
2022/04/23 01:21:30;;;;;;;14.73;13.10;;;12.40;99.90;;;;;;4994417;28;20483;-50
2022/04/23 01:23:58;;;;;;;14.07;12.37;;;12.30;99.90;;;;;;4994734;28;20454;-50
2022/04/23 01:26:27;;;;;;;13.33;11.50;;;12.40;99.90;;;;;;4994668;28;20525;-50
2022/04/23 01:28:55;;;;;;;18.57;12.97;;;12.30;99.90;;;;;;4994236;28;20487;-51
2022/04/23 01:31:22;;;;;;;13.80;12.40;;;12.20;99.90;;;;;;4994467;28;20506;-50
2022/04/23 01:33:51;;;;;;;14.83;13.40;;;12.20;99.90;;;;;;4993487;28;20485;-51
2022/04/23 01:36:19;;;;;;;13.83;12.43;;;12.20;99.90;;;;;;4994170;28;20452;-50
2022/04/23 01:38:48;;;;;;;12.63;11.40;;;12.20;99.90;;;;;;4994393;28;20511;-50
2022/04/23 01:41:15;;;;;;;12.73;11.40;;;12.20;99.90;;;;;;4994497;28;20531;-50
2022/04/23 01:43:42;;;;;;;14.37;12.70;;;12.10;99.90;;;;;;4994142;28;20804;-50
2022/04/23 01:46:09;;;;;;;18.03;12.60;;;12.10;99.90;;;;;;4994046;28;20550;-50
2022/04/23 01:48:36;;;;;;;13.67;12.27;;;12.10;99.90;;;;;;4994043;28;20468;-50
2022/04/23 01:51:03;;;;;;;12.63;11.40;;;12.10;99.90;;;;;;4994009;28;20494;-50
2022/04/23 01:53:31;;;;;;;15.13;13.50;;;12.00;99.90;;;;;;4993974;28;20951;-50
2022/04/23 01:55:59;;;;;;;11.47;10.23;;;12.00;99.90;;;;;;4994163;28;20955;-50
2022/04/23 01:58:26;;;;;;;12.63;11.33;;;12.00;99.90;;;;;;4994165;28;20476;-50
2022/04/23 02:00:54;;;;;;;12.30;11.00;;;12.00;99.90;;;;;;4994146;28;20452;-50
2022/04/23 02:03:22;;;;;;;13.63;12.20;;;11.90;99.90;;;;;;4994260;28;20448;-50
2022/04/23 02:05:49;;;;;;;13.27;11.97;;;11.90;99.90;;;;;;4993902;28;20460;-50
2022/04/23 02:08:18;;;;;;;13.50;11.10;;;11.90;99.90;;;;;;4994037;28;20551;-50
2022/04/23 02:10:47;;;;;;;13.10;11.87;;;11.90;99.90;;;;;;4994056;28;20587;-50
2022/04/23 02:13:15;;;;;;;15.40;12.33;;;11.80;99.90;;;;;;4993820;28;20456;-50
2022/04/23 02:15:42;;;;;;;14.27;12.77;;;11.70;99.90;;;;;;4994076;28;20452;-50
2022/04/23 02:18:11;;;;;;;14.73;12.83;;;11.70;99.90;;;;;;4993697;28;20971;-50
2022/04/23 02:20:38;;;;;;;15.67;12.77;;;11.70;99.90;;;;;;4994139;28;20450;-50
2022/04/23 02:23:06;;;;;;;13.50;12.20;;;11.70;99.90;;;;;;4993697;28;20448;-50
2022/04/23 02:25:34;;;;;;;14.43;12.90;;;11.70;99.90;;;;;;4994008;28;20460;-50
2022/04/23 02:28:02;;;;;;;15.47;13.87;;;11.50;99.90;;;;;;4993648;28;20475;-50
2022/04/23 02:30:32;;;;;;;16.87;15.17;;;;;;;;;;4993490;28;20484;-50
2022/04/23 02:32:59;;;;;;;18.17;15.37;;;11.30;99.90;;;;;;4993263;28;20456;-50
2022/04/23 02:35:26;;;;;;;16.53;14.83;;;11.30;99.90;;;;;;4993995;28;20436;-50
2022/04/23 02:37:56;;;;;;;18.83;16.10;;;11.30;99.90;;;;;;4993431;28;20974;-50
2022/04/23 02:40:23;;;;;;;17.20;15.40;;;11.30;99.90;;;;;;4993551;28;20811;-50
2022/04/23 02:42:51;;;;;;;16.97;15.27;;;11.30;99.90;;;;;;4993492;28;20483;-50
2022/04/23 02:45:21;;;;;;;16.90;15.20;;;11.30;99.90;;;;;;4995221;28;20527;-50
2022/04/23 02:47:50;;;;;;;15.70;14.10;;;11.20;99.90;;;;;;4997525;28;20475;-50
2022/04/23 02:50:26;;;;;;;15.77;14.13;;;11.30;99.90;;;;;;4997161;28;20456;-49
2022/04/23 02:52:55;;;;;;;16.83;14.80;;;11.30;99.90;;;;;;4997623;28;20794;-50
2022/04/23 02:55:23;;;;;;;16.93;15.17;;;11.20;99.90;;;;;;4997281;28;20468;-50
2022/04/23 02:57:51;;;;;;;20.27;15.10;;;11.20;99.90;;;;;;4997430;28;20478;-50
2022/04/23 03:00:19;;;;;;;16.60;14.80;;;11.30;99.90;;;;;;4997355;28;20448;-50
2022/04/23 03:02:47;;;;;;;20.40;16.50;;;11.20;99.90;;;;;;4997096;28;20456;-51
2022/04/23 03:05:16;;;;;;;17.80;15.93;;;11.20;99.90;;;;;;4997282;28;20455;-51
2022/04/23 03:07:44;;;;;;;16.17;14.43;;;11.20;99.90;;;;;;4997134;28;20559;-50
2022/04/23 03:10:13;;;;;;;15.90;14.37;;;11.20;99.90;;;;;;4997310;28;20465;-50
2022/04/23 03:12:41;;;;;;;17.63;15.77;;;11.20;99.90;;;;;;4996877;28;20483;-50
2022/04/23 03:15:10;;;;;;;17.80;15.90;;;11.10;99.90;;;;;;4997060;28;20456;-50
2022/04/23 03:17:38;;;;;;;17.50;15.70;;;11.10;99.90;;;;;;4996918;28;20452;-50
2022/04/23 03:20:07;;;;;;;17.83;16.00;;;11.10;99.90;;;;;;4997094;28;20502;-50
2022/04/23 03:22:36;;;;;;;17.27;15.30;;;11.00;99.90;;;;;;4996963;28;20501;-50
2022/04/23 03:25:03;;;;;;;15.70;14.17;;;11.00;99.90;;;;;;4996787;28;20456;-50
2022/04/23 03:27:31;;;;;;;15.80;13.90;;;11.00;99.90;;;;;;4997000;28;20457;-50
2022/04/23 03:29:59;;;;;;;19.57;15.57;;;10.90;99.90;;;;;;4996509;28;20483;-50
2022/04/23 03:32:26;;;;;;;17.57;15.80;;;10.90;99.90;;;;;;4996398;28;21014;-50
2022/04/23 03:34:53;;;;;;;17.90;16.10;;;10.80;99.90;;;;;;4996422;28;20570;-51
2022/04/23 03:37:21;;;;;;;17.43;15.53;;;10.80;99.90;;;;;;4996417;28;20436;-50
2022/04/23 03:39:50;;;;;;;16.27;14.67;;;10.80;99.90;;;;;;4996672;28;20447;-51
2022/04/23 03:42:17;;;;;;;16.10;14.60;;;10.60;99.90;;;;;;4996647;28;20804;-50
2022/04/23 03:44:44;;;;;;;18.13;15.37;;;10.60;99.90;;;;;;4996244;28;20822;-51
2022/04/23 03:47:11;;;;;;;15.73;13.73;;;10.50;99.90;;;;;;4996521;28;20456;-50
2022/04/23 03:49:39;;;;;;;16.20;13.90;;;10.50;99.90;;;;;;4996245;28;20814;-50
2022/04/23 03:52:06;;;;;;;16.07;14.47;;;10.40;99.90;;;;;;4996309;28;20483;-50
2022/04/23 03:54:33;;;;;;;18.47;16.33;;;10.30;99.90;;;;;;4996090;28;20444;-51
2022/04/23 03:57:02;;;;;;;16.83;15.03;;;10.20;99.90;;;;;;4995281;28;20463;-50
2022/04/23 03:59:30;;;;;;;14.70;13.20;;;10.20;99.90;;;;;;4996287;28;20474;-51
2022/04/23 04:02:02;;;;;;;15.97;14.33;;;10.20;99.90;;;;;;4996258;28;20448;-50
2022/04/23 04:04:30;;;;;;;15.37;13.87;;;10.10;99.90;;;;;;4996258;28;20432;-50
2022/04/23 04:06:57;;;;;;;13.53;12.13;;;10.10;99.90;;;;;;4995952;28;20962;-50
2022/04/23 04:09:24;;;;;;;14.43;12.93;;;10.00;99.90;;;;;;4996108;28;20530;-51
2022/04/23 04:12:03;;;;;;;14.83;13.37;;;10.00;99.90;;;;;;4995645;28;20850;-51
2022/04/23 04:14:34;;;;;;;14.07;11.57;;;10.00;99.90;;;;;;4996246;28;20519;-51
2022/04/23 04:17:03;;;;;;;12.70;11.50;;;9.90;99.90;;;;;;4995831;28;20914;-50
2022/04/23 04:19:32;;;;;;;13.30;12.00;;;10.00;99.90;;;;;;4995903;28;20470;-51
2022/04/23 04:22:02;;;;;;;13.77;12.40;;;9.90;99.90;;;;;;4995583;28;20455;-51
2022/04/23 04:24:29;;;;;;;13.27;11.87;;;9.80;99.90;;;;;;4995937;28;20456;-51
2022/04/23 04:26:57;;;;;;;13.80;12.30;;;9.70;99.90;;;;;;4995925;28;20916;-49
2022/04/23 04:29:26;;;;;;;13.70;12.10;;;9.70;99.90;;;;;;4995657;28;20478;-49
2022/04/23 04:31:55;;;;;;;15.37;12.87;;;9.80;99.90;;;;;;4995754;28;20484;-50
2022/04/23 04:34:28;;;;;;;13.80;12.40;;;9.70;99.90;;;;;;4995347;28;20512;-50
2022/04/23 04:37:04;;;;;;;13.67;12.40;;;9.80;99.90;;;;;;4995380;28;20919;-52
2022/04/23 04:39:32;;;;;;;13.67;12.27;;;9.90;99.90;;;;;;4995233;28;20546;-50
2022/04/23 04:41:59;;;;;;;12.27;11.10;;;10.00;99.90;;;;;;4995480;28;20454;-50
2022/04/23 04:44:27;;;;;;;13.37;11.97;;;10.00;99.90;;;;;;4995609;28;20454;-51
2022/04/23 04:46:55;;;;;;;14.03;11.47;;;9.90;99.90;;;;;;4995231;28;20462;-51
2022/04/23 04:49:23;;;;;;;13.43;12.17;;;9.90;99.90;;;;;;4995289;28;20578;-52
2022/04/23 04:51:50;;;;;;;13.77;12.27;;;9.90;99.90;;;;;;4995338;28;20480;-50
2022/04/23 04:54:18;;;;;;;13.93;12.60;;;9.90;99.90;;;;;;4995041;28;20447;-50
2022/04/23 04:56:46;;;;;;;13.70;11.80;;;10.10;99.90;;;;;;4995275;28;20460;-50
2022/04/23 04:59:13;;;;;;;13.17;11.77;;;10.20;99.90;;;;;;4995253;28;20494;-50
2022/04/23 05:01:41;;;;;;;12.47;11.20;;;10.20;99.90;;;;;;4995153;28;20454;-50
2022/04/23 05:04:09;;;;;;;13.23;11.83;;;10.20;99.90;;;;;;4995044;28;20463;-56
2022/04/23 05:06:37;;;;;;;13.83;11.93;;;10.30;99.90;;;;;;4994996;28;20448;-51
2022/04/23 05:09:04;;;;;;;13.27;11.87;;;10.40;99.90;;;;;;4994558;28;20452;-50
2022/04/23 05:11:31;;;;;;;14.27;12.90;;;10.40;99.90;;;;;;4994857;28;20483;-50
2022/04/23 05:14:03;;;;;;;15.37;12.13;;;10.40;99.90;;;;;;4994935;28;20547;-51
2022/04/23 05:16:30;;;;;;;12.90;11.60;;;10.40;99.90;;;;;;4994938;28;20938;-50
2022/04/23 05:18:57;;;;;;;21.60;12.97;;;10.50;99.90;;;;;;4994411;28;21045;-50
2022/04/23 05:21:26;;;;;;;13.60;12.20;;;10.50;99.90;;;;;;4994502;28;20448;-50
2022/04/23 05:23:53;;;;;;;13.93;12.53;;;10.50;99.90;;;;;;4994575;28;20931;-51
2022/04/23 05:26:20;;;;;;;13.37;11.97;;;10.60;99.90;;;;;;4994541;28;20794;-50
2022/04/23 05:28:47;;;;;;;13.13;11.83;;;10.60;99.90;;;;;;4994336;28;20475;-50
2022/04/23 05:31:14;;;;;;;12.33;11.03;;;10.60;99.90;;;;;;4994348;28;20448;-50
2022/04/23 05:33:41;;;;;;;12.00;10.80;;;10.60;99.90;;;;;;4994083;28;20495;-50
2022/04/23 05:36:08;;;;;;;14.53;12.27;;;10.60;99.90;;;;;;4994588;28;20800;-50
2022/04/23 05:38:37;;;;;;;14.33;12.40;;;10.60;99.90;;;;;;4994203;28;20975;-50
2022/04/23 05:41:05;;;;;;;12.80;11.50;;;10.60;99.90;;;;;;4994162;28;20543;-50
2022/04/23 05:43:32;;;;;;;13.20;11.80;;;10.50;99.90;;;;;;4994007;28;20444;-50
2022/04/23 05:46:00;;;;;;;13.70;12.17;;;10.60;99.90;;;;;;4994187;28;20547;-51
2022/04/23 05:48:27;;;;;;;13.43;11.80;;;10.60;99.90;;;;;;4994346;28;20495;-50
2022/04/23 05:50:55;;;;;;;14.03;12.63;;;10.60;99.90;;;;;;4994366;28;20447;-50
2022/04/23 05:53:22;;;;;;;12.53;11.30;;;10.70;99.90;;;;;;4994196;28;20468;-50
2022/04/23 05:55:50;;;;;;;12.90;11.60;;;10.70;99.90;;;;;;4994041;28;20931;-50
2022/04/23 05:58:18;;;;;;;14.43;13.00;;;10.70;99.90;;;;;;4994133;28;20468;-51
2022/04/23 06:00:45;;;;;;;13.00;11.70;;;10.80;99.90;;;;;;4994074;28;20487;-50
2022/04/23 06:03:12;;;;;;;12.77;11.37;;;10.70;99.90;;;;;;4994156;28;20447;-50
2022/04/23 06:05:40;;;;;;;12.50;11.07;;;10.90;99.90;;;;;;4993841;28;20825;-50
2022/04/23 06:08:07;;;;;;;14.10;12.27;;;11.00;99.90;;;;;;4993883;28;20534;-50
2022/04/23 06:10:34;;;;;;;15.63;12.70;;;10.90;99.90;;;;;;4993812;28;20813;-50
2022/04/23 06:13:06;;;;;;;14.27;12.33;;;10.90;99.90;;;;;;4993958;28;20479;-50
2022/04/23 06:15:33;;;;;;;13.37;12.07;;;10.90;99.90;;;;;;4994118;28;20432;-50
2022/04/23 06:18:00;;;;;;;13.07;11.63;;;11.00;99.90;;;;;;4993762;28;20467;-50
2022/04/23 06:20:27;;;;;;;13.40;12.00;;;11.00;99.90;;;;;;4996449;28;20510;-50
2022/04/23 06:22:55;;;;;;;13.10;11.80;;;11.00;99.90;;;;;;4998110;28;20444;-51
2022/04/23 06:25:22;;;;;;;13.73;12.17;;;11.00;99.90;;;;;;4998018;28;20814;-50
2022/04/23 06:27:50;;;;;;;12.17;10.90;;;11.10;99.90;;;;;;4997969;28;20468;-50
2022/04/23 06:30:19;;;;;;;11.90;10.63;;;11.20;99.90;;;;;;4997999;28;20486;-50
2022/04/23 06:32:46;;;;;;;11.67;10.47;;;11.10;99.90;;;;;;4997626;28;20860;-50
2022/04/23 06:35:13;;;;;;;12.50;11.20;;;11.10;99.90;;;;;;4997343;28;21000;-50
2022/04/23 06:37:42;;;;;;;11.27;10.17;;;11.20;99.90;;;;;;4997789;28;20570;-50
2022/04/23 06:40:11;;;;;;;10.73;9.70;;;11.20;99.90;;;;;;4997434;28;20456;-50
2022/04/23 06:42:39;;;;;;;12.90;10.30;;;11.20;99.90;;;;;;4997150;28;20533;-51
2022/04/23 06:45:07;;;;;;;10.20;8.97;;;11.30;99.90;;;;;;4997686;28;20455;-50
2022/04/23 06:47:35;;;;;;;10.47;9.43;;;11.50;99.90;;;;;;4997361;28;20468;-50
2022/04/23 06:50:02;;;;;;;10.50;9.50;;;11.40;99.90;;;;;;4997631;28;20962;-50
2022/04/23 06:52:30;;;;;;;11.30;10.30;;;11.40;99.90;;;;;;4997211;28;21348;-50
2022/04/23 06:54:57;;;;;;;11.13;9.40;;;11.30;99.90;;;;;;4996989;28;20451;-50
2022/04/23 06:57:26;;;;;;;11.30;10.20;;;11.40;99.90;;;;;;4997487;28;20443;-50
2022/04/23 06:59:53;;;;;;;9.13;8.33;;;11.40;99.90;;;;;;4997356;28;20886;-50
2022/04/23 07:02:21;;;;;;;10.47;9.40;;;11.50;99.90;;;;;;4997017;28;20444;-50
2022/04/23 07:04:50;;;;;;;10.03;9.00;;;11.50;99.90;;;;;;4997422;28;20448;-50
2022/04/23 07:07:17;;;;;;;11.00;10.00;;;11.70;99.90;;;;;;4996929;28;20462;-50
2022/04/23 07:09:44;;;;;;;8.73;7.83;;;11.70;99.90;;;;;;4996874;28;20523;-50
2022/04/23 07:12:13;;;;;;;9.90;9.00;;;11.80;99.90;;;;;;4996879;28;21077;-50
2022/04/23 07:14:40;;;;;;;10.47;9.37;;;11.80;99.90;;;;;;4996825;28;20459;-50
2022/04/23 07:17:07;;;;;;;9.83;8.90;;;11.90;99.90;;;;;;4996263;28;20448;-50
2022/04/23 07:19:39;;;;;;;11.37;10.27;;;11.90;99.90;;;;;;4996747;28;20893;-50
2022/04/23 07:22:08;;;;;;;9.67;8.67;;;11.90;99.90;;;;;;4996556;28;20452;-49
2022/04/23 07:24:35;;;;;;;9.50;8.50;;;11.70;99.90;;;;;;4996284;28;20466;-49
2022/04/23 07:27:03;;;;;;;10.57;7.70;;;11.70;99.90;;;;;;4996952;28;20805;-49
2022/04/23 07:29:30;;;;;;;10.70;9.30;;;11.90;99.90;;;;;;4996905;28;20479;-49
2022/04/23 07:31:58;;;;;;;9.03;8.17;;;11.90;99.90;;;;;;4996048;28;20981;-49
2022/04/23 07:37:29;;;;;;;9.03;8.13;;;12.00;99.90;;;;;;4996024;28;21019;-49
2022/04/23 07:40:01;;;;;;;10.47;9.57;;;12.10;99.90;;;;;;4994988;28;20434;-49
2022/04/23 07:42:29;;;;;;;9.77;8.77;;;12.10;99.90;;;;;;5008774;28;20444;-50
2022/04/23 07:44:56;;;;;;;8.73;7.90;;;12.10;99.90;;;;;;5008168;28;20452;-50
2022/04/23 07:47:23;;;;;;;9.10;8.20;;;12.10;99.90;;;;;;5003465;28;20444;-50
2022/04/23 07:49:51;;;;;;;8.93;8.13;;;12.10;99.90;;;;;;5004686;28;20451;-51
2022/04/23 07:52:20;;;;;;;8.93;8.03;;;12.20;99.90;;;;;;5005462;28;20487;-51
2022/04/23 07:54:48;;;;;;;9.03;7.73;;;12.40;99.90;;;;;;5009178;28;20926;-50
2022/04/23 07:57:15;;;;;;;9.37;8.47;;;12.40;99.90;;;;;;5001181;28;20468;-50
2022/04/23 07:59:43;;;;;;;8.83;8.03;;;12.50;99.90;;;;;;5001973;28;20542;-51
2022/04/23 08:02:11;;;;;;;8.47;7.67;;;12.30;99.90;;;;;;5005890;28;20462;-51
2022/04/23 08:04:38;;;;;;;8.60;7.70;;;12.40;99.90;;;;;;5007371;28;20523;-49
2022/04/23 08:07:06;;;;;;;9.50;8.60;;;12.70;99.90;;;;;;4995592;28;20458;-49
2022/04/23 08:09:39;;;;;;;8.77;7.80;;;12.40;99.90;;;;;;4995881;28;20464;-50
2022/04/23 08:12:07;;;;;;;9.53;8.63;;;12.40;99.90;;;;;;4995881;28;20436;-51
2022/04/23 08:14:35;;;;;;;9.17;8.20;;;12.50;99.90;;;;;;4995782;28;20530;-50
2022/04/23 08:17:03;;;;;;;9.50;8.50;;;12.70;99.90;;;;;;4995608;28;20448;-50
2022/04/23 08:19:30;;;;;;;10.17;9.17;;;12.70;99.90;;;;;;5004543;28;20550;-51
2022/04/23 08:21:57;;;;;;;9.73;8.70;;;12.70;99.90;;;;;;5014707;28;20530;-51
2022/04/23 08:24:24;;;;;;;11.73;8.97;;;12.70;99.90;;;;;;5015041;28;20439;-51
2022/04/23 08:26:53;;;;;;;9.77;8.77;;;12.80;99.90;;;;;;5015086;28;20443;-51
2022/04/23 08:32:05;;;;;;;10.40;8.20;;;13.00;99.90;;;;;;5014930;28;20465;-51
2022/04/23 08:34:32;;;;;;;8.63;7.70;;;13.10;99.90;;;;;;5014900;28;20479;-53
2022/04/23 08:37:00;;;;;;;10.47;8.47;;;13.00;99.90;;;;;;5014779;28;20581;-53
2022/04/23 08:39:27;;;;;;;10.03;9.00;;;13.00;99.90;;;;;;5015297;28;20467;-53
2022/04/23 08:41:55;;;;;;;10.33;9.27;;;13.10;99.90;;;;;;5014120;28;20451;-53
2022/04/23 08:44:23;;;;;;;9.13;7.97;;;13.40;99.90;;;;;;5013856;28;20537;-54
2022/04/23 08:46:56;;;;;;;8.93;8.03;;;13.60;99.90;;;;;;5014696;28;20933;-55
2022/04/23 08:49:31;;;;;;;9.03;8.00;;;14.10;99.90;;;;;;5014611;28;20468;-52
2022/04/23 08:52:16;;;;;;;10.00;9.00;;;14.20;99.90;;;;;;5014609;28;20483;-52
2022/04/23 08:54:43;;;;;;;9.07;8.17;;;13.80;99.90;;;;;;5006217;28;20454;-53
2022/04/23 08:57:12;;;;;;;10.13;9.13;;;13.50;99.90;;;;;;5014448;28;20451;-53
2022/04/23 08:59:40;;;;;;;9.70;8.87;;;13.70;99.90;;;;;;5014232;28;20930;-53
2022/04/23 09:02:12;;;;;;;12.27;9.10;;;14.10;99.90;;;;;;5014670;28;20450;-52
2022/04/23 09:04:40;;;;;;;9.43;8.53;;;14.20;99.90;;;;;;5007124;28;20440;-53
2022/04/23 09:07:18;;;;;;;10.67;9.20;;;14.00;99.90;;;;;;4994494;28;20840;-53
2022/04/23 09:09:49;;;;;;;10.90;8.93;;;14.30;99.90;;;;;;4992848;28;20523;-53
2022/04/23 09:12:18;;;;;;;9.03;8.20;;;14.60;99.90;;;;;;4992991;28;20900;-53
2022/04/23 09:14:46;;;;;;;8.60;7.80;;;15.00;99.90;;;;;;4992788;28;20452;-53
2022/04/23 09:25:46;;;;;;;9.23;7.90;;;14.80;99.90;;;;;;5011895;28;20462;-53
2022/04/23 09:28:20;;;;;;;9.80;8.80;;;14.70;99.90;;;;;;5013129;28;20467;-52
2022/04/23 09:30:49;;;;;;;10.40;9.07;;;14.30;99.90;;;;;;5014284;28;20499;-53
2022/04/23 09:33:16;;;;;;;10.57;9.53;;;14.30;99.90;;;;;;5013777;28;20823;-53
2022/04/23 09:35:56;;;;;;;8.93;8.03;;;14.30;99.90;;;;;;5014201;28;20467;-53
2022/04/23 09:38:24;;;;;;;10.10;8.70;;;14.40;99.90;;;;;;5013830;28;20467;-53
2022/04/23 09:40:53;;;;;;;10.73;9.60;;;14.50;99.90;;;;;;5013579;28;20447;-53
2022/04/23 09:43:29;;;;;;;8.10;7.30;;;14.40;99.90;;;;;;5013992;28;20475;-52
2022/04/23 09:46:05;;;;;;;8.60;7.80;;;14.40;99.90;;;;;;5013844;28;20497;-52
2022/04/23 09:48:32;;;;;;;8.50;7.60;;;14.10;99.90;;;;;;5013618;28;20537;-53
2022/04/23 09:51:00;;;;;;;8.67;6.83;;;14.00;99.90;;;;;;5013520;28;20450;-52
2022/04/23 09:53:28;;;;;;;9.10;7.70;;;13.80;99.90;;;;;;5013482;28;21103;-52
2022/04/23 09:55:59;;;;;;;8.53;7.00;;;13.70;99.90;;;;;;5013632;28;20827;-52
2022/04/23 09:58:29;;;;;;;7.70;6.87;;;13.60;99.90;;;;;;5013798;28;20481;-52
2022/04/23 10:00:57;;;;;;;7.33;6.63;;;13.70;99.90;;;;;;5013564;28;20458;-53
2022/04/23 10:03:30;;;;;;;8.27;6.90;;;13.80;99.90;;;;;;5013481;28;20447;-53
2022/04/23 10:05:58;;;;;;;7.30;6.60;;;13.90;99.90;;;;;;5013677;28;20988;-53
2022/04/23 10:08:27;;;;;;;7.97;6.93;;;13.80;99.90;;;;;;5013657;28;20905;-53
2022/04/23 10:10:56;;;;;;;8.80;7.30;;;13.90;99.90;;;;;;5013331;28;20529;-53
2022/04/23 10:13:25;;;;;;;10.20;6.30;;;13.90;99.90;;;;;;5012472;28;20475;-53
2022/04/23 10:15:55;;;;;;;6.37;5.60;;;13.70;99.90;;;;;;5013272;28;20964;-53
2022/04/23 10:18:23;;;;;;;7.87;6.77;;;13.80;99.90;;;;;;5013111;28;20471;-52
2022/04/23 10:20:56;;;;;;;7.30;6.47;;;14.00;99.90;;;;;;5007938;28;20467;-52
2022/04/23 10:23:46;;;;;;;9.37;6.37;;;13.70;99.90;;;;;;4993457;28;20452;-53
2022/04/23 10:26:38;;;;;;;7.90;6.63;;;13.80;99.90;;;;;;4992716;28;20455;-53
2022/04/23 10:29:09;;;;;;;8.50;5.60;;;14.00;99.90;;;;;;4992421;28;20472;-52
2022/04/23 10:31:38;;;;;;;7.47;6.77;;;14.20;99.90;;;;;;4993351;28;20451;-52
2022/04/23 10:34:07;;;;;;;6.77;6.10;;;14.00;99.90;;;;;;4992618;28;20571;-51
2022/04/23 10:36:34;;;;;;;6.30;5.70;;;14.00;99.90;;;;;;4993873;28;20857;-52
2022/04/23 10:39:20;;;;;;;6.20;5.60;;;13.90;99.90;;;;;;4992603;28;20977;-51
2022/04/23 10:41:47;;;;;;;6.47;5.77;;;14.20;99.90;;;;;;5006906;28;20482;-51
2022/04/23 10:44:22;;;;;;;7.03;6.30;;;14.20;99.90;;;;;;4993402;28;20592;-51
2022/04/23 10:46:52;;;;;;;7.60;6.80;;;14.20;99.90;;;;;;4993468;28;20474;-51
2022/04/23 10:49:21;;;;;;;7.03;5.93;;;14.50;99.90;;;;;;4992945;28;20495;-53
2022/04/23 10:51:50;;;;;;;7.13;6.43;;;14.60;99.90;;;;;;4993323;28;20534;-50
2022/04/23 10:54:21;;;;;;;7.07;6.37;;;14.70;99.90;;;;;;4993491;28;20484;-51
2022/04/23 10:56:53;;;;;;;6.53;5.93;;;14.70;99.70;;;;;;4993549;28;20462;-52
2022/04/23 10:59:42;;;;;;;8.80;6.93;;;14.70;99.90;;;;;;4993177;28;20915;-52
2022/04/23 11:02:32;;;;;;;7.83;7.03;;;14.80;99.90;;;;;;4993633;28;20432;-51
2022/04/23 11:13:27;;;;;;;8.07;7.23;;;14.50;99.90;;;;;;4996727;28;20479;-51
2022/04/23 11:16:16;;;;;;;7.20;6.20;;;14.50;99.90;;;;;;4996633;28;20452;-51
2022/04/23 11:18:45;;;;;;;7.20;6.30;;;14.50;99.90;;;;;;4997006;28;20476;-51
2022/04/23 11:21:17;;;;;;;8.30;7.27;;;14.60;99.90;;;;;;4996889;28;20554;-51
2022/04/23 11:23:47;;;;;;;7.87;6.90;;;14.60;99.90;;;;;;4996911;28;20436;-52
2022/04/23 11:26:14;;;;;;;7.63;6.73;;;14.60;99.90;;;;;;4996534;28;20530;-52
2022/04/23 11:28:43;;;;;;;8.57;6.90;;;14.60;99.90;;;;;;4996724;28;20474;-52
2022/04/23 11:31:14;;;;;;;8.00;7.20;;;14.70;99.90;;;;;;4996411;28;20957;-52
2022/04/23 11:33:53;;;;;;;8.30;7.50;;;14.80;99.90;;;;;;4996266;28;20594;-51
2022/04/23 11:36:25;;;;;;;8.20;7.07;;;14.60;99.90;;;;;;4996891;28;20518;-51
2022/04/23 11:38:53;;;;;;;10.53;8.33;;;14.60;99.90;;;;;;4996291;28;20563;-51
2022/04/23 11:41:34;;;;;;;9.07;8.17;;;14.50;99.90;;;;;;5010692;28;20451;-51
2022/04/23 11:44:13;;;;;;;9.10;8.20;;;14.50;99.90;;;;;;5015797;28;20509;-52
2022/04/23 11:46:44;;;;;;;9.00;7.93;;;14.70;99.90;;;;;;5016109;28;20439;-52
2022/04/23 11:49:26;;;;;;;12.50;8.30;;;14.60;99.90;;;;;;5015666;28;20476;-52
2022/04/23 11:52:01;;;;;;;11.10;7.40;;;14.60;99.90;;;;;;5016009;28;20486;-51
2022/04/23 11:54:36;;;;;;;9.20;7.80;;;14.40;99.90;;;;;;5015441;28;20992;-52
2022/04/23 11:57:03;;;;;;;9.20;7.70;;;14.50;99.90;;;;;;5015633;28;20462;-52
2022/04/23 11:59:38;;;;;;;9.60;7.80;;;14.60;99.90;;;;;;5014984;28;20469;-52
2022/04/23 12:02:07;;;;;;;11.67;8.50;;;14.70;99.90;;;;;;5014005;28;20451;-52
2022/04/23 12:04:48;;;;;;;10.80;8.47;;;14.70;99.90;;;;;;5015614;28;20451;-52
2022/04/23 12:07:15;;;;;;;9.43;8.50;;;14.70;99.90;;;;;;5015756;28;20431;-52
2022/04/23 12:09:47;;;;;;;8.20;7.00;;;14.90;99.90;;;;;;5013632;28;20461;-52
2022/04/23 12:12:19;;;;;;;9.90;8.87;;;15.00;99.90;;;;;;4995625;28;20433;-51
2022/04/23 12:14:47;;;;;;;9.23;7.30;;;15.10;99.30;;;;;;4996049;28;20472;-52
2022/04/23 12:17:21;;;;;;;8.40;7.33;;;14.90;99.80;;;;;;4994683;28;20848;-52
2022/04/23 12:19:50;;;;;;;11.40;8.40;;;15.00;99.70;;;;;;4995630;28;20431;-52
2022/04/23 12:22:25;;;;;;;9.13;7.70;;;15.10;99.80;;;;;;4995403;28;20487;-52
2022/04/23 12:25:06;;;;;;;10.20;8.23;;;15.20;99.80;;;;;;4995553;28;20450;-52
2022/04/23 12:27:55;;;;;;;8.30;7.50;;;15.10;99.60;;;;;;4995466;28;20527;-52
2022/04/23 12:41:41;;;;;;;9.33;7.20;;;15.30;99.90;;;;;;4994941;28;20435;-52
2022/04/23 12:44:19;;;;;;;10.40;8.23;;;15.20;99.90;;;;;;4995065;28;20483;-52
2022/04/23 12:46:57;;;;;;;8.67;7.70;;;15.20;99.50;;;;;;4994668;28;21014;-52
2022/04/23 12:49:25;;;;;;;8.90;7.90;;;15.10;99.80;;;;;;4994983;28;20483;-52
2022/04/23 12:51:54;;;;;;;8.80;7.00;;;15.10;99.90;;;;;;4995258;28;20455;-52
2022/04/23 12:54:23;;;;;;;8.47;7.67;;;15.20;99.80;;;;;;4994876;28;20487;-52
2022/04/23 12:56:51;;;;;;;7.77;7.07;;;15.30;99.70;;;;;;4995504;28;20455;-50
2022/04/23 12:59:19;;;;;;;8.00;7.20;;;15.40;99.20;;;;;;4995141;28;20472;-50
2022/04/23 13:01:46;;;;;;;11.07;8.37;;;15.50;99.50;;;;;;4994696;28;20939;-50
2022/04/23 13:04:15;;;;;;;9.77;7.90;;;15.40;99.00;;;;;;4994697;28;20818;-51
2022/04/23 13:09:28;;;;;;;8.93;8.03;;;15.30;99.30;;;;;;4994518;28;21026;-51
2022/04/23 13:11:56;;;;;;;8.87;7.77;;;15.40;99.60;;;;;;5012145;28;20467;-51
2022/04/23 13:14:23;;;;;;;7.97;7.20;;;15.60;99.80;;;;;;5014017;28;20487;-50
2022/04/23 13:16:50;;;;;;;8.40;7.70;;;15.60;99.00;;;;;;5014266;28;20455;-52
2022/04/23 13:19:17;;;;;;;11.50;7.40;;;15.70;99.20;;;;;;5013998;28;20471;-51
2022/04/23 13:21:45;;;;;;;9.27;8.37;;;15.50;99.20;;;;;;5013984;28;20454;-51